createdAt,value
2023-05-14T00:00:38.055Z,1014.4
2023-05-14T00:01:38.141Z,1014.4
2023-05-14T00:02:38.191Z,1014.4
2023-05-14T00:03:38.269Z,1014.4
2023-05-14T00:04:38.320Z,1014.4
2023-05-14T00:05:38.099Z,1014.4
2023-05-14T00:06:38.104Z,1014.4
2023-05-14T00:07:38.150Z,1014.4
2023-05-14T00:08:38.228Z,1014.4
2023-05-14T00:09:38.141Z,1014.3
2023-05-14T00:10:38.144Z,1014.4
2023-05-14T00:11:38.160Z,1014.3
2023-05-14T00:12:38.182Z,1014.3
2023-05-14T00:13:38.187Z,1014.2
2023-05-14T00:14:38.194Z,1014.3
2023-05-14T00:15:38.312Z,1014.3
2023-05-14T00:16:38.333Z,1014.2
2023-05-14T00:17:38.314Z,1014.3
2023-05-14T00:18:38.318Z,1014.2
2023-05-14T00:19:38.252Z,1014.2
2023-05-14T00:20:38.267Z,1014.2
2023-05-14T00:21:38.293Z,1014.3
2023-05-14T00:22:38.385Z,1014.3
2023-05-14T00:23:38.328Z,1014.2
2023-05-14T00:24:38.319Z,1014.2
2023-05-14T00:25:38.325Z,1014.2
2023-05-14T00:26:38.345Z,1014.2
2023-05-14T00:27:38.356Z,1014.1
2023-05-14T00:28:38.374Z,1014.1
2023-05-14T00:29:38.414Z,1014.1
2023-05-14T00:30:38.391Z,1014.1
2023-05-14T00:31:38.583Z,1014.1
2023-05-14T00:32:38.471Z,1014.1
2023-05-14T00:33:38.449Z,1014.0
2023-05-14T00:51:38.987Z,1014.2
2023-05-14T00:52:38.693Z,1014.2
2023-05-14T00:53:38.695Z,1014.2
2023-05-14T00:54:38.718Z,1014.2
2023-05-14T00:55:38.732Z,1014.2
2023-05-14T00:56:38.744Z,1014.2
2023-05-14T00:57:38.757Z,1014.3
2023-05-14T00:58:38.755Z,1014.3
2023-05-14T00:59:38.776Z,1014.2
2023-05-14T01:00:38.862Z,1014.2
2023-05-14T01:01:38.800Z,1014.3
2023-05-14T01:02:39.024Z,1014.2
2023-05-14T01:03:39.121Z,1014.2
2023-05-14T01:04:38.835Z,1014.2
2023-05-14T01:05:38.833Z,1014.2
2023-05-14T01:06:38.870Z,1014.2
2023-05-14T01:07:38.868Z,1014.2
2023-05-14T01:08:38.877Z,1014.2
2023-05-14T01:09:38.899Z,1014.2
2023-05-14T01:10:38.908Z,1014.2
2023-05-14T01:11:38.910Z,1014.2
2023-05-14T01:12:38.918Z,1014.2
2023-05-14T01:13:38.950Z,1014.2
2023-05-14T01:14:38.944Z,1014.2
2023-05-14T01:15:38.959Z,1014.2
2023-05-14T01:16:39.021Z,1014.2
2023-05-14T01:17:39.038Z,1014.2
2023-05-14T01:18:39.068Z,1014.2
2023-05-14T01:19:39.018Z,1014.2
2023-05-14T01:20:39.016Z,1014.1
2023-05-14T01:21:39.042Z,1014.2
2023-05-14T01:22:39.063Z,1014.2
2023-05-14T01:23:39.056Z,1014.2
2023-05-14T01:24:39.139Z,1014.3
2023-05-14T01:25:39.102Z,1014.2
2023-05-14T01:26:39.105Z,1014.2
2023-05-14T01:27:39.108Z,1014.2
2023-05-14T01:28:39.114Z,1014.3
2023-05-14T01:29:39.125Z,1014.2
2023-05-14T01:30:39.155Z,1014.2
2023-05-14T01:31:39.233Z,1014.2
2023-05-14T01:32:39.248Z,1014.2
2023-05-14T01:33:39.189Z,1014.2
2023-05-14T01:34:39.199Z,1014.2
2023-05-14T01:35:39.222Z,1014.3
2023-05-14T01:36:39.240Z,1014.2
2023-05-14T01:37:39.246Z,1014.2
2023-05-14T01:38:39.259Z,1014.1
2023-05-14T01:39:39.279Z,1014.2
2023-05-14T01:40:39.286Z,1014.2
2023-05-14T01:41:39.343Z,1014.1
2023-05-14T01:42:39.315Z,1014.1
2023-05-14T01:43:39.348Z,1014.2
2023-05-14T01:44:39.355Z,1014.2
2023-05-14T01:45:39.472Z,1014.0
2023-05-14T01:46:39.515Z,1014.1
2023-05-14T01:47:39.491Z,1014.1
2023-05-14T01:48:39.406Z,1014.0
2023-05-14T01:49:39.411Z,1014.1
2023-05-14T01:50:39.429Z,1014.0
2023-05-14T01:51:39.441Z,1014.0
2023-05-14T01:52:39.455Z,1014.0
2023-05-14T01:53:39.449Z,1014.0
2023-05-14T01:54:39.448Z,1014.0
2023-05-14T01:55:39.460Z,1014.0
2023-05-14T01:56:39.460Z,1014.0
2023-05-14T01:57:39.463Z,1014.0
2023-05-14T01:58:39.475Z,1014.0
2023-05-14T01:59:39.486Z,1014.0
2023-05-14T02:00:39.485Z,1014.0
2023-05-14T02:01:39.596Z,1014.0
2023-05-14T02:02:39.572Z,1014.0
2023-05-14T02:03:39.590Z,1013.9
2023-05-14T02:04:39.523Z,1014.0
2023-05-14T02:05:39.525Z,1014.1
2023-05-14T02:06:39.546Z,1014.0
2023-05-14T02:07:39.547Z,1014.1
2023-05-14T02:08:39.558Z,1014.1
2023-05-14T02:09:39.560Z,1014.1
2023-05-14T02:10:39.559Z,1014.1
2023-05-14T02:11:39.589Z,1014.0
2023-05-14T02:12:39.573Z,1014.0
2023-05-14T02:13:39.588Z,1014.1
2023-05-14T02:14:39.585Z,1014.1
2023-05-14T02:15:39.727Z,1014.1
2023-05-14T02:16:39.603Z,1014.0
2023-05-14T02:17:39.669Z,1014.0
2023-05-14T02:18:39.698Z,1014.1
2023-05-14T02:19:39.625Z,1014.1
2023-05-14T02:20:39.627Z,1014.0
2023-05-14T02:21:39.636Z,1014.0
2023-05-14T02:22:39.646Z,1014.1
2023-05-14T02:23:42.369Z,1014.0
2023-05-14T02:24:39.658Z,1014.0
2023-05-14T02:25:39.690Z,1014.0
2023-05-14T02:26:39.682Z,1014.0
2023-05-14T02:27:39.686Z,1014.0
2023-05-14T02:28:39.731Z,1014.0
2023-05-14T02:29:39.722Z,1013.9
2023-05-14T02:30:39.696Z,1014.0
2023-05-14T02:31:39.778Z,1013.9
2023-05-14T02:32:39.903Z,1013.9
2023-05-14T02:33:39.816Z,1014.0
2023-05-14T02:34:39.740Z,1014.0
2023-05-14T02:35:39.740Z,1013.9
2023-05-14T02:36:39.736Z,1013.9
2023-05-14T02:37:39.773Z,1013.9
2023-05-14T02:38:39.760Z,1013.9
2023-05-14T02:39:39.766Z,1014.0
2023-05-14T02:40:39.807Z,1013.9
2023-05-14T02:41:39.781Z,1013.9
2023-05-14T02:42:39.794Z,1013.9
2023-05-14T02:43:39.802Z,1013.9
2023-05-14T02:44:39.805Z,1013.8
2023-05-14T02:45:39.829Z,1013.8
2023-05-14T02:46:39.870Z,1013.8
2023-05-14T02:47:39.920Z,1013.8
2023-05-14T02:48:39.836Z,1013.8
2023-05-14T02:49:39.840Z,1013.8
2023-05-14T02:50:39.856Z,1013.8
2023-05-14T02:51:39.871Z,1013.8
2023-05-14T02:52:39.858Z,1013.7
2023-05-14T02:53:39.881Z,1013.8
2023-05-14T02:54:39.871Z,1013.8
2023-05-14T02:55:39.892Z,1013.8
2023-05-14T02:56:39.911Z,1013.8
2023-05-14T02:57:39.899Z,1013.8
2023-05-14T02:58:39.898Z,1013.8
2023-05-14T02:59:40.258Z,1013.8
2023-05-14T03:00:40.466Z,1013.8
2023-05-14T03:01:40.433Z,1013.8
2023-05-14T03:02:40.370Z,1013.8
2023-05-14T03:03:40.513Z,1013.8
2023-05-14T03:04:39.929Z,1013.8
2023-05-14T03:05:39.935Z,1013.8
2023-05-14T03:06:39.947Z,1013.8
2023-05-14T03:07:39.956Z,1013.7
2023-05-14T03:08:39.957Z,1013.7
2023-05-14T03:09:39.953Z,1013.7
2023-05-14T03:10:39.977Z,1013.8
2023-05-14T03:11:39.996Z,1013.7
2023-05-14T03:12:39.981Z,1013.7
2023-05-14T03:13:39.979Z,1013.7
2023-05-14T03:14:40.001Z,1013.7
2023-05-14T03:15:40.000Z,1013.7
2023-05-14T03:16:40.161Z,1013.8
2023-05-14T03:17:40.087Z,1013.7
2023-05-14T03:18:40.138Z,1013.7
2023-05-14T03:19:40.036Z,1013.8
2023-05-14T03:20:40.031Z,1013.8
2023-05-14T03:21:40.048Z,1013.7
2023-05-14T03:22:40.034Z,1013.7
2023-05-14T03:23:40.072Z,1013.8
2023-05-14T03:24:40.085Z,1013.7
2023-05-14T03:25:40.062Z,1013.7
2023-05-14T03:26:40.088Z,1013.8
2023-05-14T03:27:40.086Z,1013.7
2023-05-14T03:28:40.095Z,1013.7
2023-05-14T03:29:40.108Z,1013.8
2023-05-14T03:30:40.195Z,1013.8
2023-05-14T03:31:40.107Z,1013.8
2023-05-14T03:32:40.220Z,1013.8
2023-05-14T03:33:40.126Z,1013.8
2023-05-14T03:34:40.143Z,1013.8
2023-05-14T03:35:40.139Z,1013.9
2023-05-14T03:36:40.155Z,1013.8
2023-05-14T03:37:40.161Z,1013.8
2023-05-14T03:38:40.171Z,1013.9
2023-05-14T03:39:40.172Z,1013.8
2023-05-14T03:40:40.174Z,1013.8
2023-05-14T03:41:40.182Z,1013.8
2023-05-14T03:42:40.190Z,1013.8
2023-05-14T03:43:40.216Z,1013.8
2023-05-14T03:44:40.191Z,1013.8
2023-05-14T03:45:40.210Z,1013.9
2023-05-14T03:46:40.222Z,1013.8
2023-05-14T03:47:40.284Z,1013.8
2023-05-14T03:48:40.291Z,1013.8
2023-05-14T03:49:40.232Z,1013.8
2023-05-14T03:50:40.232Z,1013.8
2023-05-14T03:51:40.237Z,1013.8
2023-05-14T03:52:40.247Z,1013.8
2023-05-14T03:53:40.256Z,1013.8
2023-05-14T03:54:40.258Z,1013.8
2023-05-14T03:55:40.271Z,1013.8
2023-05-14T03:56:40.270Z,1013.8
2023-05-14T03:57:40.266Z,1013.9
2023-05-14T03:58:40.283Z,1013.8
2023-05-14T03:59:40.283Z,1013.7
2023-05-14T04:00:40.294Z,1013.9
2023-05-14T04:01:40.296Z,1013.9
2023-05-14T04:02:40.480Z,1013.9
2023-05-14T04:03:40.564Z,1013.9
2023-05-14T04:04:40.402Z,1013.8
2023-05-14T04:05:40.329Z,1013.9
2023-05-14T04:06:40.369Z,1013.8
2023-05-14T04:07:40.351Z,1013.8
2023-05-14T04:08:40.361Z,1013.7
2023-05-14T04:09:40.370Z,1013.8
2023-05-14T04:10:40.397Z,1013.8
2023-05-14T04:11:40.381Z,1013.8
2023-05-14T04:12:40.386Z,1013.7
2023-05-14T04:13:40.403Z,1013.8
2023-05-14T04:14:40.408Z,1013.8
2023-05-14T04:15:40.469Z,1013.8
2023-05-14T04:16:40.603Z,1013.8
2023-05-14T04:17:40.556Z,1013.8
2023-05-14T04:18:40.488Z,1013.8
2023-05-14T04:19:40.484Z,1013.8
2023-05-14T04:20:40.476Z,1013.8
2023-05-14T04:21:40.481Z,1013.7
2023-05-14T04:22:40.496Z,1013.8
2023-05-14T04:23:40.479Z,1013.7
2023-05-14T04:24:40.493Z,1013.8
2023-05-14T04:25:40.507Z,1013.8
2023-05-14T04:26:40.501Z,1013.7
2023-05-14T04:27:40.519Z,1013.8
2023-05-14T04:28:40.569Z,1013.7
2023-05-14T04:29:40.527Z,1013.7
2023-05-14T04:30:40.546Z,1013.7
2023-05-14T04:31:40.587Z,1013.7
2023-05-14T04:32:40.615Z,1013.7
2023-05-14T04:33:40.555Z,1013.7
2023-05-14T04:34:40.562Z,1013.7
2023-05-14T04:35:40.568Z,1013.7
2023-05-14T04:36:40.579Z,1013.7
2023-05-14T04:37:40.651Z,1013.6
2023-05-14T04:38:40.580Z,1013.7
2023-05-14T04:39:40.591Z,1013.7
2023-05-14T04:40:40.596Z,1013.6
2023-05-14T04:41:40.601Z,1013.6
2023-05-14T04:42:40.605Z,1013.7
2023-05-14T04:43:40.612Z,1013.7
2023-05-14T04:44:40.628Z,1013.8
2023-05-14T04:45:40.714Z,1013.7
2023-05-14T04:46:40.637Z,1013.7
2023-05-14T04:47:40.692Z,1013.7
2023-05-14T04:48:40.645Z,1013.7
2023-05-14T04:49:40.661Z,1013.8
2023-05-14T04:50:40.669Z,1013.7
2023-05-14T04:51:40.669Z,1013.7
2023-05-14T04:52:40.705Z,1013.6
2023-05-14T04:53:40.679Z,1013.7
2023-05-14T04:54:40.762Z,1013.7
2023-05-14T04:55:40.686Z,1013.8
2023-05-14T04:56:40.693Z,1013.7
2023-05-14T04:57:40.696Z,1013.7
2023-05-14T04:58:40.707Z,1013.7
2023-05-14T04:59:40.703Z,1013.7
2023-05-14T05:00:40.722Z,1013.8
2023-05-14T05:01:40.930Z,1013.7
2023-05-14T05:02:40.785Z,1013.7
2023-05-14T05:03:40.802Z,1013.7
2023-05-14T05:04:40.753Z,1013.8
2023-05-14T05:05:40.768Z,1013.8
2023-05-14T05:06:40.767Z,1013.7
2023-05-14T05:07:40.785Z,1013.7
2023-05-14T05:08:40.783Z,1013.7
2023-05-14T05:09:40.803Z,1013.7
2023-05-14T05:10:40.801Z,1013.7
2023-05-14T05:11:40.802Z,1013.7
2023-05-14T05:12:40.809Z,1013.7
2023-05-14T05:13:40.820Z,1013.7
2023-05-14T05:14:40.833Z,1013.7
2023-05-14T05:15:40.850Z,1013.7
2023-05-14T05:16:40.839Z,1013.7
2023-05-14T05:17:40.946Z,1013.7
2023-05-14T05:18:40.909Z,1013.7
2023-05-14T05:19:44.775Z,1013.7
2023-05-14T05:20:40.869Z,1013.7
2023-05-14T05:21:40.954Z,1013.7
2023-05-14T05:22:40.873Z,1013.6
2023-05-14T05:23:40.906Z,1013.7
2023-05-14T05:24:40.897Z,1013.7
2023-05-14T05:25:40.895Z,1013.7
2023-05-14T05:26:40.898Z,1013.7
2023-05-14T05:27:40.911Z,1013.7
2023-05-14T05:28:40.913Z,1013.7
2023-05-14T05:29:40.933Z,1013.8
2023-05-14T05:30:40.943Z,1013.7
2023-05-14T05:31:41.070Z,1013.8
2023-05-14T05:32:41.073Z,1013.7
2023-05-14T05:33:40.964Z,1013.7
2023-05-14T05:34:40.986Z,1013.7
2023-05-14T05:35:41.021Z,1013.7
2023-05-14T05:36:40.985Z,1013.7
2023-05-14T05:37:40.984Z,1013.7
2023-05-14T05:38:41.008Z,1013.7
2023-05-14T05:39:41.004Z,1013.8
2023-05-14T05:40:41.003Z,1013.7
2023-05-14T05:41:41.007Z,1013.7
2023-05-14T05:42:41.024Z,1013.7
2023-05-14T05:43:41.021Z,1013.7
2023-05-14T05:44:41.020Z,1013.8
2023-05-14T05:45:41.031Z,1013.7
2023-05-14T05:46:41.195Z,1013.8
2023-05-14T05:47:41.259Z,1013.8
2023-05-14T05:48:41.051Z,1013.8
2023-05-14T05:49:41.068Z,1013.8
2023-05-14T05:50:41.072Z,1013.8
2023-05-14T05:51:41.074Z,1013.8
2023-05-14T05:52:41.081Z,1013.8
2023-05-14T05:53:41.084Z,1013.8
2023-05-14T05:54:41.085Z,1013.7
2023-05-14T05:55:41.104Z,1013.8
2023-05-14T05:56:41.097Z,1013.7
2023-05-14T05:57:41.116Z,1013.8
2023-05-14T05:58:41.120Z,1013.7
2023-05-14T05:59:41.123Z,1013.8
2023-05-14T06:00:41.127Z,1013.8
2023-05-14T06:01:41.230Z,1013.8
2023-05-14T06:02:41.439Z,1013.8
2023-05-14T06:03:41.146Z,1013.8
2023-05-14T06:04:41.157Z,1013.8
2023-05-14T06:05:41.273Z,1013.8
2023-05-14T06:06:41.169Z,1013.8
2023-05-14T06:07:41.181Z,1013.8
2023-05-14T06:08:41.198Z,1013.8
2023-05-14T06:09:41.188Z,1013.9
2023-05-14T06:10:41.206Z,1013.8
2023-05-14T06:11:41.223Z,1013.7
2023-05-14T06:12:41.214Z,1013.8
2023-05-14T06:13:41.208Z,1013.8
2023-05-14T06:14:41.218Z,1013.7
2023-05-14T06:15:41.230Z,1013.7
2023-05-14T06:16:41.413Z,1013.8
2023-05-14T06:17:41.328Z,1013.8
2023-05-14T06:18:41.324Z,1013.8
2023-05-14T06:19:41.256Z,1013.8
2023-05-14T06:20:41.261Z,1013.7
2023-05-14T06:21:41.266Z,1013.8
2023-05-14T06:22:41.277Z,1013.8
2023-05-14T06:23:41.298Z,1013.8
2023-05-14T06:24:41.297Z,1013.8
2023-05-14T06:25:41.326Z,1013.7
2023-05-14T06:26:41.302Z,1013.8
2023-05-14T06:27:41.328Z,1013.8
2023-05-14T06:28:41.316Z,1013.8
2023-05-14T06:29:41.345Z,1013.8
2023-05-14T06:30:41.331Z,1013.7
2023-05-14T06:31:41.417Z,1013.7
2023-05-14T06:32:41.482Z,1013.8
2023-05-14T06:33:41.348Z,1013.8
2023-05-14T06:34:41.364Z,1013.8
2023-05-14T06:35:41.368Z,1013.8
2023-05-14T06:36:41.379Z,1013.9
2023-05-14T06:37:41.372Z,1013.8
2023-05-14T06:38:41.412Z,1013.8
2023-05-14T06:39:41.427Z,1013.7
2023-05-14T06:40:41.414Z,1013.8
2023-05-14T06:41:41.437Z,1013.8
2023-05-14T06:42:41.418Z,1013.8
2023-05-14T06:43:41.443Z,1013.8
2023-05-14T06:44:41.462Z,1013.8
2023-05-14T06:45:41.444Z,1013.8
2023-05-14T06:46:41.454Z,1013.7
2023-05-14T06:47:41.599Z,1013.8
2023-05-14T06:48:41.566Z,1013.8
2023-05-14T06:49:41.476Z,1013.7
2023-05-14T06:50:41.511Z,1013.9
2023-05-14T06:51:41.513Z,1013.8
2023-05-14T06:52:41.476Z,1013.8
2023-05-14T06:53:41.560Z,1013.8
2023-05-14T06:54:41.502Z,1013.8
2023-05-14T06:55:41.604Z,1013.8
2023-05-14T06:56:41.544Z,1013.8
2023-05-14T06:57:41.529Z,1013.8
2023-05-14T06:58:41.568Z,1013.8
2023-05-14T06:59:41.547Z,1013.7
2023-05-14T07:00:41.550Z,1013.7
2023-05-14T07:01:41.645Z,1013.7
2023-05-14T07:02:41.636Z,1013.7
2023-05-14T07:03:41.573Z,1013.7
2023-05-14T07:04:41.922Z,1013.7
2023-05-14T07:05:41.583Z,1013.7
2023-05-14T07:06:41.582Z,1013.7
2023-05-14T07:07:41.585Z,1013.7
2023-05-14T07:08:41.601Z,1013.6
2023-05-14T07:09:41.602Z,1013.7
2023-05-14T07:10:41.601Z,1013.6
2023-05-14T07:11:41.613Z,1013.6
2023-05-14T07:12:41.624Z,1013.6
2023-05-14T07:13:41.686Z,1013.6
2023-05-14T07:14:41.662Z,1013.6
2023-05-14T07:15:41.649Z,1013.6
2023-05-14T07:16:41.796Z,1013.6
2023-05-14T07:17:41.731Z,1013.6
2023-05-14T07:18:41.695Z,1013.5
2023-05-14T07:19:41.665Z,1013.5
2023-05-14T07:20:41.675Z,1013.5
2023-05-14T07:21:41.689Z,1013.5
2023-05-14T07:22:41.690Z,1013.5
2023-05-14T07:23:41.700Z,1013.5
2023-05-14T07:24:41.718Z,1013.5
2023-05-14T07:25:41.708Z,1013.5
2023-05-14T07:26:41.767Z,1013.4
2023-05-14T07:27:41.751Z,1013.5
2023-05-14T07:28:41.725Z,1013.4
2023-05-14T07:29:41.742Z,1013.5
2023-05-14T07:30:41.753Z,1013.5
2023-05-14T07:31:41.820Z,1013.5
2023-05-14T07:32:42.100Z,1013.5
2023-05-14T07:33:41.780Z,1013.5
2023-05-14T07:34:41.772Z,1013.5
2023-05-14T07:35:41.777Z,1013.5
2023-05-14T07:36:41.767Z,1013.5
2023-05-14T07:37:41.787Z,1013.5
2023-05-14T07:38:41.800Z,1013.4
2023-05-14T07:39:41.845Z,1013.5
2023-05-14T07:40:41.822Z,1013.4
2023-05-14T07:41:41.821Z,1013.4
2023-05-14T07:42:41.823Z,1013.4
2023-05-14T07:43:41.833Z,1013.4
2023-05-14T07:44:41.832Z,1013.5
2023-05-14T07:45:41.882Z,1013.4
2023-05-14T07:46:41.853Z,1013.5
2023-05-14T07:47:42.015Z,1013.4
2023-05-14T07:48:41.979Z,1013.4
2023-05-14T07:49:41.895Z,1013.4
2023-05-14T07:50:41.881Z,1013.4
2023-05-14T07:51:41.887Z,1013.4
2023-05-14T07:52:41.980Z,1013.4
2023-05-14T07:53:41.890Z,1013.4
2023-05-14T07:54:41.902Z,1013.4
2023-05-14T07:55:41.908Z,1013.5
2023-05-14T07:56:41.914Z,1013.5
2023-05-14T07:57:41.924Z,1013.5
2023-05-14T07:58:41.931Z,1013.4
2023-05-14T07:59:41.935Z,1013.4
2023-05-14T08:00:41.940Z,1013.4
2023-05-14T08:01:42.030Z,1013.4
2023-05-14T08:02:42.084Z,1013.4
2023-05-14T08:03:42.140Z,1013.4
2023-05-14T08:04:41.972Z,1013.3
2023-05-14T08:05:42.000Z,1013.3
2023-05-14T08:06:42.013Z,1013.3
2023-05-14T08:07:42.016Z,1013.3
2023-05-14T08:08:42.012Z,1013.3
2023-05-14T08:09:42.007Z,1013.3
2023-05-14T08:10:42.135Z,1013.3
2023-05-14T08:11:42.034Z,1013.3
2023-05-14T08:12:42.044Z,1013.2
2023-05-14T08:13:42.043Z,1013.2
2023-05-14T08:14:42.074Z,1013.2
2023-05-14T08:15:42.067Z,1013.2
2023-05-14T08:16:42.176Z,1013.2
2023-05-14T08:17:42.133Z,1013.2
2023-05-14T08:18:42.145Z,1013.2
2023-05-14T08:19:42.080Z,1013.2
2023-05-14T08:20:42.086Z,1013.2
2023-05-14T08:21:42.097Z,1013.2
2023-05-14T08:22:42.125Z,1013.3
2023-05-14T08:23:42.105Z,1013.1
2023-05-14T08:24:42.111Z,1013.2
2023-05-14T08:25:42.125Z,1013.2
2023-05-14T08:26:42.153Z,1013.2
2023-05-14T08:27:42.140Z,1013.2
2023-05-14T08:28:42.129Z,1013.2
2023-05-14T08:29:42.151Z,1013.1
2023-05-14T08:30:42.233Z,1013.2
2023-05-14T08:31:42.188Z,1013.2
2023-05-14T08:32:42.199Z,1013.2
2023-05-14T08:33:42.181Z,1013.2
2023-05-14T08:34:44.227Z,1013.1
2023-05-14T08:35:42.202Z,1013.1
2023-05-14T08:36:42.201Z,1013.1
2023-05-14T08:37:42.219Z,1013.1
2023-05-14T08:38:42.218Z,1013.1
2023-05-14T08:39:42.225Z,1013.1
2023-05-14T08:40:42.231Z,1013.1
2023-05-14T08:41:42.235Z,1013.1
2023-05-14T08:42:42.250Z,1013.0
2023-05-14T08:43:42.243Z,1013.1
2023-05-14T08:44:42.253Z,1013.0
2023-05-14T08:45:42.260Z,1013.1
2023-05-14T08:46:42.295Z,1013.1
2023-05-14T08:47:42.306Z,1013.0
2023-05-14T08:48:42.363Z,1012.9
2023-05-14T08:49:42.296Z,1012.9
2023-05-14T08:50:42.293Z,1013.0
2023-05-14T08:51:42.304Z,1013.0
2023-05-14T08:52:42.309Z,1012.9
2023-05-14T08:53:42.318Z,1012.9
2023-05-14T08:54:42.327Z,1013.0
2023-05-14T08:55:42.335Z,1012.9
2023-05-14T08:56:42.337Z,1012.9
2023-05-14T08:57:42.350Z,1012.9
2023-05-14T08:58:42.356Z,1012.9
2023-05-14T08:59:42.356Z,1012.9
2023-05-14T09:00:42.363Z,1013.0
2023-05-14T09:01:42.534Z,1012.9
2023-05-14T09:02:42.600Z,1012.8
2023-05-14T09:03:42.478Z,1012.9
2023-05-14T09:04:42.409Z,1012.8
2023-05-14T09:05:42.408Z,1012.8
2023-05-14T09:06:42.429Z,1012.9
2023-05-14T09:07:42.425Z,1012.9
2023-05-14T09:08:42.437Z,1012.8
2023-05-14T09:09:42.461Z,1012.8
2023-05-14T09:10:42.458Z,1012.8
2023-05-14T09:11:42.456Z,1012.8
2023-05-14T09:12:42.526Z,1012.8
2023-05-14T09:13:42.492Z,1012.8
2023-05-14T09:14:42.481Z,1012.8
2023-05-14T09:15:42.511Z,1012.7
2023-05-14T09:16:42.957Z,1012.8
2023-05-14T09:17:42.572Z,1012.8
2023-05-14T09:18:42.587Z,1012.8
2023-05-14T09:19:42.538Z,1012.8
2023-05-14T09:20:42.557Z,1012.8
2023-05-14T09:21:42.550Z,1012.7
2023-05-14T09:22:42.556Z,1012.8
2023-05-14T09:23:42.587Z,1012.8
2023-05-14T09:24:42.570Z,1012.7
2023-05-14T09:25:42.575Z,1012.7
2023-05-14T09:26:42.588Z,1012.8
2023-05-14T09:27:42.602Z,1012.7
2023-05-14T09:28:42.621Z,1012.7
2023-05-14T09:29:42.613Z,1012.7
2023-05-14T09:30:42.630Z,1012.7
2023-05-14T09:31:42.689Z,1012.6
2023-05-14T09:32:42.705Z,1012.6
2023-05-14T09:33:42.634Z,1012.7
2023-05-14T09:34:42.643Z,1012.7
2023-05-14T09:35:42.650Z,1012.7
2023-05-14T09:36:42.654Z,1012.6
2023-05-14T09:37:42.670Z,1012.7
2023-05-14T09:38:42.701Z,1012.7
2023-05-14T09:39:42.682Z,1012.6
2023-05-14T09:40:42.692Z,1012.6
2023-05-14T09:41:42.695Z,1012.6
2023-05-14T09:42:42.706Z,1012.6
2023-05-14T09:43:42.715Z,1012.5
2023-05-14T09:44:42.732Z,1012.6
2023-05-14T09:45:42.735Z,1012.5
2023-05-14T09:46:42.756Z,1012.6
2023-05-14T09:47:42.989Z,1012.6
2023-05-14T09:48:42.916Z,1012.4
2023-05-14T09:49:42.776Z,1012.5
2023-05-14T09:50:42.782Z,1012.5
2023-05-14T09:51:42.797Z,1012.4
2023-05-14T09:52:42.820Z,1012.4
2023-05-14T09:53:42.807Z,1012.5
2023-05-14T09:54:42.812Z,1012.5
2023-05-14T09:55:42.821Z,1012.5
2023-05-14T09:56:42.827Z,1012.4
2023-05-14T09:57:42.846Z,1012.4
2023-05-14T09:58:42.844Z,1012.3
2023-05-14T09:59:42.850Z,1012.4
2023-05-14T10:00:42.869Z,1012.3
2023-05-14T10:01:43.339Z,1012.4
2023-05-14T10:02:42.974Z,1012.3
2023-05-14T10:03:42.889Z,1012.4
2023-05-14T10:04:43.245Z,1012.3
2023-05-14T10:05:42.903Z,1012.3
2023-05-14T10:06:42.910Z,1012.4
2023-05-14T10:07:42.907Z,1012.3
2023-05-14T10:08:42.926Z,1012.3
2023-05-14T10:09:42.937Z,1012.3
2023-05-14T10:10:42.946Z,1012.3
2023-05-14T10:11:43.026Z,1012.3
2023-05-14T10:12:42.961Z,1012.3
2023-05-14T10:13:42.986Z,1012.3
2023-05-14T10:14:42.979Z,1012.3
2023-05-14T10:15:42.989Z,1012.3
2023-05-14T10:16:43.058Z,1012.3
2023-05-14T10:17:43.052Z,1012.2
2023-05-14T10:18:43.108Z,1012.3
2023-05-14T10:19:43.027Z,1012.2
2023-05-14T10:20:43.034Z,1012.2
2023-05-14T10:21:43.033Z,1012.2
2023-05-14T10:22:43.049Z,1012.2
2023-05-14T10:23:43.068Z,1012.3
2023-05-14T10:24:43.068Z,1012.3
2023-05-14T10:25:43.088Z,1012.2
2023-05-14T10:26:43.104Z,1012.3
2023-05-14T10:27:43.097Z,1012.2
2023-05-14T10:28:43.122Z,1012.3
2023-05-14T10:29:43.107Z,1012.3
2023-05-14T10:30:43.117Z,1012.2
2023-05-14T10:31:43.329Z,1012.2
2023-05-14T10:32:43.150Z,1012.3
2023-05-14T10:33:43.148Z,1012.2
2023-05-14T10:34:43.172Z,1012.2
2023-05-14T10:35:43.152Z,1012.1
2023-05-14T10:36:43.166Z,1012.2
2023-05-14T10:37:43.186Z,1012.2
2023-05-14T10:38:43.184Z,1012.2
2023-05-14T10:39:43.201Z,1012.1
2023-05-14T10:40:43.210Z,1012.1
2023-05-14T10:41:43.211Z,1012.0
2023-05-14T10:42:43.283Z,1012.1
2023-05-14T10:43:43.241Z,1012.0
2023-05-14T10:44:43.228Z,1012.0
2023-05-14T10:45:43.237Z,1012.0
2023-05-14T10:46:43.433Z,1012.0
2023-05-14T10:47:43.315Z,1012.0
2023-05-14T10:48:43.261Z,1012.0
2023-05-14T10:49:44.178Z,1012.1
2023-05-14T10:50:43.333Z,1012.1
2023-05-14T10:51:43.408Z,1012.0
2023-05-14T10:52:43.311Z,1012.0
2023-05-14T10:53:43.513Z,1012.0
2023-05-14T10:54:43.306Z,1011.9
2023-05-14T10:55:43.339Z,1012.0
2023-05-14T10:56:43.325Z,1012.0
2023-05-14T10:57:43.343Z,1011.9
2023-05-14T10:58:43.338Z,1012.0
2023-05-14T10:59:43.367Z,1012.0
2023-05-14T11:00:43.361Z,1012.0
2023-05-14T11:01:43.412Z,1012.0
2023-05-14T11:02:43.424Z,1012.0
2023-05-14T11:03:43.643Z,1012.0
2023-05-14T11:04:43.389Z,1012.0
2023-05-14T11:05:43.391Z,1011.9
2023-05-14T11:06:43.420Z,1012.0
2023-05-14T11:07:43.419Z,1012.0
2023-05-14T11:08:43.429Z,1012.0
2023-05-14T11:09:43.439Z,1012.0
2023-05-14T11:10:43.445Z,1011.9
2023-05-14T11:11:43.455Z,1011.9
2023-05-14T11:12:43.483Z,1011.9
2023-05-14T11:13:43.471Z,1011.9
2023-05-14T11:14:43.481Z,1012.0
2023-05-14T11:15:43.488Z,1011.9
2023-05-14T11:16:43.619Z,1012.0
2023-05-14T11:17:43.653Z,1011.9
2023-05-14T11:18:43.570Z,1012.0
2023-05-14T11:19:43.557Z,1012.0
2023-05-14T11:20:43.554Z,1011.9
2023-05-14T11:21:43.641Z,1011.9
2023-05-14T11:22:43.565Z,1011.9
2023-05-14T11:23:43.558Z,1011.8
2023-05-14T11:24:43.578Z,1011.8
2023-05-14T11:25:43.575Z,1011.8
2023-05-14T11:26:43.588Z,1011.8
2023-05-14T11:27:43.601Z,1011.7
2023-05-14T11:28:43.609Z,1011.7
2023-05-14T11:29:43.628Z,1011.7
2023-05-14T11:30:43.628Z,1011.8
2023-05-14T11:31:43.770Z,1011.7
2023-05-14T11:32:43.795Z,1011.7
2023-05-14T11:33:43.655Z,1011.7
2023-05-14T11:34:43.687Z,1011.7
2023-05-14T11:35:43.679Z,1011.7
2023-05-14T11:36:43.713Z,1011.7
2023-05-14T11:37:43.698Z,1011.6
2023-05-14T11:38:43.717Z,1011.7
2023-05-14T11:39:43.720Z,1011.6
2023-05-14T11:40:43.747Z,1011.7
2023-05-14T11:41:43.749Z,1011.6
2023-05-14T11:42:43.760Z,1011.6
2023-05-14T11:43:43.765Z,1011.6
2023-05-14T11:44:43.778Z,1011.5
2023-05-14T11:45:43.859Z,1011.5
2023-05-14T11:46:43.851Z,1011.5
2023-05-14T11:47:43.923Z,1011.5
2023-05-14T11:48:43.812Z,1011.6
2023-05-14T11:49:43.825Z,1011.5
2023-05-14T11:50:43.825Z,1011.5
2023-05-14T11:51:43.831Z,1011.5
2023-05-14T11:52:43.848Z,1011.5
2023-05-14T11:53:43.845Z,1011.5
2023-05-14T11:54:43.862Z,1011.6
2023-05-14T11:55:43.931Z,1011.5
2023-05-14T11:56:43.882Z,1011.5
2023-05-14T11:57:43.901Z,1011.4
2023-05-14T11:58:43.893Z,1011.5
2023-05-14T11:59:43.899Z,1011.5
2023-05-14T12:00:43.929Z,1011.5
2023-05-14T12:01:43.918Z,1011.5
2023-05-14T12:02:44.140Z,1011.5
2023-05-14T12:03:44.332Z,1011.5
2023-05-14T12:04:44.004Z,1011.4
2023-05-14T12:05:43.972Z,1011.4
2023-05-14T12:06:43.960Z,1011.4
2023-05-14T12:07:43.967Z,1011.4
2023-05-14T12:08:43.977Z,1011.4
2023-05-14T12:09:45.528Z,1011.4
2023-05-14T12:10:43.988Z,1011.4
2023-05-14T12:11:43.993Z,1011.4
2023-05-14T12:12:43.996Z,1011.5
2023-05-14T12:13:44.016Z,1011.4
2023-05-14T12:14:44.028Z,1011.5
2023-05-14T12:15:44.140Z,1011.5
2023-05-14T12:16:44.177Z,1011.4
2023-05-14T12:17:44.144Z,1011.4
2023-05-14T12:18:44.141Z,1011.4
2023-05-14T12:19:44.078Z,1011.4
2023-05-14T12:20:44.075Z,1011.3
2023-05-14T12:21:44.089Z,1011.4
2023-05-14T12:22:44.099Z,1011.5
2023-05-14T12:23:44.101Z,1011.5
2023-05-14T12:24:44.125Z,1011.5
2023-05-14T12:25:44.125Z,1011.4
2023-05-14T12:26:44.145Z,1011.5
2023-05-14T12:27:44.146Z,1011.4
2023-05-14T12:28:44.180Z,1011.4
2023-05-14T12:29:44.163Z,1011.5
2023-05-14T12:30:44.172Z,1011.4
2023-05-14T12:31:44.238Z,1011.4
2023-05-14T12:32:44.235Z,1011.4
2023-05-14T12:33:44.188Z,1011.4
2023-05-14T12:34:44.200Z,1011.4
2023-05-14T12:35:44.212Z,1011.4
2023-05-14T12:36:44.231Z,1011.4
2023-05-14T12:37:44.251Z,1011.4
2023-05-14T12:38:44.231Z,1011.4
2023-05-14T12:39:44.245Z,1011.4
2023-05-14T12:40:44.255Z,1011.4
2023-05-14T12:41:44.253Z,1011.4
2023-05-14T12:42:44.253Z,1011.5
2023-05-14T12:43:44.274Z,1011.4
2023-05-14T12:44:44.281Z,1011.4
2023-05-14T12:45:44.319Z,1011.4